Time;durP1;ratioP1;P1;durP2;ratioP2;P2;SDS_P1;SDS_P2;PMS_P1;PMS_P2;Temp;Humidity;BMP_temperature;BMP_pressure;BME280_temperature;BME280_humidity;BME280_pressure;Samples;Min_cycle;Max_cycle;Signal;HPM_P1;HPM_P2
2022/12/19 05:15:17;;;;;;;;;;;;;;;6.54;69.01;97832.38;4214821;27;10362;-71
2022/12/19 05:17:19;;;;;;;;;;;;;;;6.83;68.50;97829.66;4212487;28;5694;-72
2022/12/19 05:19:22;;;;;;;;;;;;;;;7.05;68.20;97828.47;4198088;28;5863;-70
2022/12/19 05:21:25;;;;;;;;;;;;;;;7.21;67.79;97833.91;4198353;28;5720;-71
2022/12/19 05:23:28;;;;;;;;;;;;;;;7.35;67.67;97823.84;4200890;28;5076;-70
2022/12/19 05:25:31;;;;;;;;;;;;;;;7.47;67.45;97825.31;4203472;28;8491;-71
2022/12/19 05:27:34;;;;;;;;;;;;;;;7.55;67.10;97815.69;4206340;28;5771;-71
2022/12/19 05:29:36;;;;;;;;;;;;;;;7.62;66.95;97815.13;4197770;28;5727;-70
2022/12/19 05:31:41;;;;;;;;;;;;;;;7.67;66.96;97808.41;4205937;28;5830;-71
2022/12/19 05:33:44;;;;;;;;;;;;;;;7.72;66.76;97811.44;4197949;28;5827;-71
2022/12/19 05:35:48;;;;;;;;;;;;;;;7.78;66.79;97805.56;4197184;28;5744;-72
2022/12/19 05:37:51;;;;;;;;;;;;;;;7.83;66.63;97815.66;4203281;28;5694;-72
2022/12/19 05:39:53;;;;;;;;;;;;;;;7.86;66.20;97810.06;4208122;28;5924;-71
2022/12/19 05:41:56;;;;;;;;;;;;;;;7.88;66.47;97813.38;4203534;28;5707;-71
2022/12/19 05:44:00;;;;;;;;;;;;;;;7.90;66.39;97811.41;4211179;28;5917;-71
2022/12/19 05:46:04;;;;;;;;;;;;;;;7.93;66.08;97810.28;4211477;28;5789;-71
2022/12/19 05:48:09;;;;;;;;;;;;;;;7.93;66.08;97813.78;4212394;28;5826;-71
2022/12/19 05:50:12;;;;;;;;;;;;;;;7.92;66.15;97809.44;4210897;28;5690;-71
2022/12/19 05:52:14;;;;;;;;;;;;;;;7.94;65.84;97819.88;4213198;28;5702;-71
2022/12/19 05:54:17;;;;;;;;;;;;;;;7.94;66.16;97820.69;4210437;28;5699;-71
2022/12/19 05:56:22;;;;;;;;;;;;;;;7.95;65.85;97818.88;4211731;28;5714;-71
2022/12/19 05:58:24;;;;;;;;;;;;;;;7.94;65.78;97818.06;4211748;28;5897;-71
2022/12/19 06:00:27;;;;;;;;;;;;;;;7.95;65.83;97814.44;4211800;28;5812;-71
2022/12/19 06:02:33;;;;;;;;;;;;;;;7.95;65.71;97806.53;4197355;28;5898;-72
2022/12/19 06:04:37;;;;;;;;;;;;;;;7.96;65.53;97810.81;4205123;28;5711;-71
2022/12/19 06:06:40;;;;;;;;;;;;;;;7.94;65.38;97807.53;4201517;28;5793;-72
2022/12/19 06:08:43;;;;;;;;;;;;;;;7.93;65.67;97812.91;4200827;28;5886;-72
2022/12/19 06:10:46;;;;;;;;;;;;;;;7.92;65.31;97812.09;4202971;28;5894;-73
2022/12/19 06:12:49;;;;;;;;;;;;;;;7.94;65.36;97814.59;4196639;28;7738;-72
2022/12/19 06:14:52;;;;;;;;;;;;;;;7.95;65.40;97819.69;4200542;28;6504;-72
2022/12/19 06:16:54;;;;;;;;;;;;;;;7.97;65.37;97828.28;4193627;28;5714;-72
2022/12/19 06:18:57;;;;;;;;;;;;;;;7.97;65.16;97815.09;4196169;28;5740;-72
2022/12/19 06:21:05;;;;;;;;;;;;;;;7.98;65.17;97811.50;4192708;28;5789;-70
2022/12/19 06:23:08;;;;;;;;;;;;;;;7.99;65.04;97818.41;4185942;28;5725;-71
2022/12/19 06:25:12;;;;;;;;;;;;;;;7.99;65.20;97805.25;4194598;28;5675;-71
2022/12/19 06:27:15;;;;;;;;;;;;;;;7.99;65.16;97813.16;4187834;28;6444;-72
2022/12/19 06:29:17;;;;;;;;;;;;;;;7.98;65.08;97808.84;4201546;28;5903;-71
2022/12/19 06:31:22;;;;;;;;;;;;;;;7.98;64.88;97819.41;4185902;28;6858;-72
2022/12/19 06:33:27;;;;;;;;;;;;;;;7.98;64.99;97815.94;4196115;28;5806;-72
2022/12/19 06:35:29;;;;;;;;;;;;;;;7.99;64.87;97813.16;4202266;28;5929;-71
2022/12/19 06:37:34;;;;;;;;;;;;;;;7.99;64.75;97810.50;4195064;28;5691;-72
2022/12/19 06:39:41;;;;;;;;;;;;;;;7.99;64.71;97812.31;4190766;28;5703;-71
2022/12/19 06:44:08;;;;;;;;;;;;;;;7.99;64.30;97807.06;4199061;28;5670;-70
2022/12/19 06:46:11;;;;;;;;;;;;;;;7.98;64.38;97811.50;4199871;28;5703;-71
2022/12/19 06:48:14;;;;;;;;;;;;;;;7.99;64.48;97810.50;4195391;28;5712;-70
2022/12/19 06:50:17;;;;;;;;;;;;;;;7.98;64.42;97806.22;4197634;28;5847;-71
2022/12/19 06:52:21;;;;;;;;;;;;;;;7.99;64.53;97801.78;4200479;28;5891;-71
2022/12/19 06:54:25;;;;;;;;;;;;;;;7.98;64.28;97802.78;4202610;28;5782;-72
2022/12/19 06:56:28;;;;;;;;;;;;;;;7.99;64.23;97796.53;4202840;28;5803;-71
2022/12/19 06:58:30;;;;;;;;;;;;;;;7.99;64.12;97797.34;4201183;28;5714;-72
2022/12/19 07:00:35;;;;;;;;;;;;;;;7.98;64.16;97795.69;4191847;28;5708;-72
2022/12/19 07:02:39;;;;;;;;;;;;;;;7.98;64.39;97795.69;4198066;28;5687;-73
2022/12/19 07:04:47;;;;;;;;;;;;;;;7.98;64.29;97803.59;4196956;28;5815;-72
2022/12/19 07:06:50;;;;;;;;;;;;;;;7.98;64.15;97805.41;4191216;28;5683;-72
2022/12/19 07:08:53;;;;;;;;;;;;;;;7.97;64.18;97814.28;4196714;28;5799;-73
2022/12/19 07:10:58;;;;;;;;;;;;;;;7.96;63.90;97813.47;4193932;28;5823;-72
2022/12/19 07:13:01;;;;;;;;;;;;;;;7.96;64.19;97805.56;4200889;28;6569;-72
2022/12/19 07:15:04;;;;;;;;;;;;;;;7.97;64.00;97799.31;4193630;28;5734;-72
2022/12/19 07:17:07;;;;;;;;;;;;;;;7.99;63.97;97804.41;4201129;28;5694;-72
2022/12/19 07:19:10;;;;;;;;;;;;;;;7.99;64.11;97810.50;4198740;28;5843;-71
2022/12/19 07:21:13;;;;;;;;;;;;;;;8.00;64.00;97816.59;4196458;28;5910;-72
2022/12/19 07:23:20;;;;;;;;;;;;;;;7.99;63.96;97825.47;4198273;28;6412;-72
2022/12/19 07:25:23;;;;;;;;;;;;;;;8.00;63.85;97819.25;4186996;28;5795;-72
2022/12/19 07:27:28;;;;;;;;;;;;;;;8.00;63.81;97820.06;4198316;28;5690;-72
2022/12/19 07:29:37;;;;;;;;;;;;;;;8.02;63.83;97818.09;4199605;28;5724;-73
2022/12/19 07:31:40;;;;;;;;;;;;;;;8.01;63.64;97815.63;4193753;28;5699;-72
2022/12/19 07:33:42;;;;;;;;;;;;;;;8.02;63.81;97818.09;4184948;28;5905;-72
2022/12/19 07:35:45;;;;;;;;;;;;;;;8.01;63.75;97818.25;4186036;28;5732;-72
2022/12/19 07:37:49;;;;;;;;;;;;;;;8.02;63.61;97823.38;4185645;28;5814;-72
2022/12/19 07:39:52;;;;;;;;;;;;;;;8.02;63.62;97823.38;4191621;28;5675;-72
2022/12/19 07:41:54;;;;;;;;;;;;;;;8.01;63.74;97826.97;4192887;28;5691;-72
2022/12/19 07:43:58;;;;;;;;;;;;;;;8.03;63.45;97825.03;4199473;28;5679;-72
2022/12/19 07:46:01;;;;;;;;;;;;;;;8.03;63.72;97827.66;4194901;28;5716;-73
2022/12/19 07:48:07;;;;;;;;;;;;;;;8.04;63.35;97831.09;4193288;28;5810;-72
2022/12/19 07:50:16;;;;;;;;;;;;;;;8.04;63.58;97837.22;4186389;28;5704;-72
2022/12/19 07:52:20;;;;;;;;;;;;;;;8.05;63.44;97833.63;4194998;28;5969;-72
2022/12/19 07:54:23;;;;;;;;;;;;;;;8.06;63.46;97840.53;4198370;28;5886;-72
2022/12/19 07:56:25;;;;;;;;;;;;;;;8.07;63.24;97838.72;4195656;28;5661;-72
2022/12/19 07:58:30;;;;;;;;;;;;;;;8.09;63.43;97848.13;4200228;28;5662;-72
2022/12/19 08:00:34;;;;;;;;;;;;;;;8.09;63.28;97842.88;4196482;28;5770;-72
2022/12/19 08:02:37;;;;;;;;;;;;;;;8.10;63.34;97841.88;4189621;28;5717;-72
2022/12/19 08:04:40;;;;;;;;;;;;;;;8.10;63.27;97844.50;4194741;28;5928;-71
2022/12/19 08:06:43;;;;;;;;;;;;;;;8.11;63.23;97840.91;4196850;28;5690;-71
2022/12/19 08:08:46;;;;;;;;;;;;;;;8.13;63.17;97838.94;4197114;28;5720;-72
2022/12/19 08:10:49;;;;;;;;;;;;;;;8.14;63.29;97850.28;4194831;28;5826;-73
2022/12/19 08:12:52;;;;;;;;;;;;;;;8.15;63.43;97846.69;4187059;28;5712;-73
2022/12/19 08:14:54;;;;;;;;;;;;;;;8.15;63.38;97842.28;4186098;28;5701;-73
2022/12/19 08:17:01;;;;;;;;;;;;;;;8.18;63.23;97844.59;4192630;28;5778;-72
2022/12/19 08:19:22;;;;;;;;;;;;;;;8.22;63.20;97841.63;4193832;28;5706;-72
2022/12/19 08:21:29;;;;;;;;;;;;;;;8.24;63.23;97842.31;4197545;28;5724;-72
2022/12/19 08:23:33;;;;;;;;;;;;;;;8.27;63.19;97844.63;4186816;28;5698;-72
2022/12/19 08:25:36;;;;;;;;;;;;;;;8.28;63.22;97841.88;4196748;28;5716;-72
2022/12/19 08:27:41;;;;;;;;;;;;;;;8.29;63.04;97835.63;4190379;28;5805;-73
2022/12/19 08:29:48;;;;;;;;;;;;;;;8.30;63.07;97850.44;4200296;28;5719;-72
2022/12/19 08:31:51;;;;;;;;;;;;;;;8.33;63.08;97849.31;4198788;28;5977;-72
2022/12/19 08:33:57;;;;;;;;;;;;;;;8.35;63.11;97850.00;4194116;28;5662;-72
2022/12/19 08:36:03;;;;;;;;;;;;;;;8.38;63.00;97852.31;4191287;28;5768;-73
2022/12/19 08:38:06;;;;;;;;;;;;;;;8.37;62.83;97842.75;4195033;28;5820;-73
2022/12/19 08:40:10;;;;;;;;;;;;;;;8.41;62.75;97846.78;4190402;28;5732;-72
2022/12/19 08:42:12;;;;;;;;;;;;;;;8.43;62.90;97844.81;4183271;28;5850;-72
2022/12/19 08:44:16;;;;;;;;;;;;;;;8.42;62.88;97841.34;4190801;28;5883;-73
2022/12/19 08:46:19;;;;;;;;;;;;;;;8.41;62.87;97844.13;4199258;28;5114;-73
2022/12/19 08:48:23;;;;;;;;;;;;;;;8.43;62.93;97860.63;4200701;28;5686;-73
2022/12/19 08:50:27;;;;;;;;;;;;;;;8.43;62.94;97857.97;4191985;28;5697;-73
2022/12/19 08:52:30;;;;;;;;;;;;;;;8.43;63.02;97853.53;4191442;28;5929;-73
2022/12/19 08:54:33;;;;;;;;;;;;;;;8.43;63.05;97852.72;4184078;28;5719;-72
2022/12/19 08:56:36;;;;;;;;;;;;;;;8.43;62.95;97850.91;4184219;28;5720;-72
2022/12/19 08:58:45;;;;;;;;;;;;;;;8.45;63.05;97853.38;4197223;28;5130;-71
2022/12/19 09:00:47;;;;;;;;;;;;;;;8.46;62.83;97855.03;4201116;28;5698;-71
2022/12/19 09:02:58;;;;;;;;;;;;;;;8.47;62.82;97851.41;4192418;28;5781;-71
2022/12/19 09:05:01;;;;;;;;;;;;;;;8.51;62.79;97857.22;4185423;28;5816;-73
2022/12/19 09:07:25;;;;;;;;;;;;;;;8.52;62.85;97853.59;4183994;28;5833;-72
2022/12/19 09:09:28;;;;;;;;;;;;;;;8.52;62.71;97859.69;4185505;28;5727;-73
2022/12/19 09:11:31;;;;;;;;;;;;;;;8.52;62.73;97846.53;4190039;28;5823;-72
2022/12/19 09:13:39;;;;;;;;;;;;;;;8.53;62.98;97850.81;4199510;28;5703;-73
2022/12/19 09:15:42;;;;;;;;;;;;;;;8.54;62.76;97855.09;4199291;28;6378;-72
2022/12/19 09:17:45;;;;;;;;;;;;;;;8.54;62.83;97849.81;4194581;28;5683;-73
2022/12/19 09:19:48;;;;;;;;;;;;;;;8.54;62.68;97854.28;4190772;28;5880;-73
2022/12/19 09:21:51;;;;;;;;;;;;;;;8.53;62.79;97858.72;4194287;28;5799;-73
2022/12/19 09:23:57;;;;;;;;;;;;;;;8.57;62.85;97861.84;4193121;28;5704;-73
2022/12/19 09:26:11;;;;;;;;;;;;;;;8.58;62.82;97859.06;4188357;28;5821;-73
2022/12/19 09:28:14;;;;;;;;;;;;;;;8.60;62.90;97864.19;4193850;28;5122;-73
2022/12/19 09:30:29;;;;;;;;;;;;;;;8.62;62.76;97863.06;4190883;28;5178;-72
2022/12/19 09:32:33;;;;;;;;;;;;;;;8.62;62.58;97863.06;4196473;28;7743;-71
2022/12/19 09:34:37;;;;;;;;;;;;;;;8.62;62.75;97870.97;4198996;28;5722;-72
2022/12/19 09:36:41;;;;;;;;;;;;;;;8.65;62.55;97878.56;4198936;28;5679;-72
2022/12/19 09:38:47;;;;;;;;;;;;;;;8.68;62.78;97872.97;4193302;28;5844;-72
2022/12/19 09:41:06;;;;;;;;;;;;;;;8.67;62.64;97876.59;4188464;28;5720;-73
2022/12/19 09:43:18;;;;;;;;;;;;;;;8.69;62.86;97864.09;4183782;28;5716;-72
2022/12/19 09:45:47;;;;;;;;;;;;;;;8.70;62.70;97859.63;4184189;28;5847;-72
2022/12/19 09:47:50;;;;;;;;;;;;;;;8.69;62.88;97864.09;4187555;28;5828;-74
2022/12/19 09:49:53;;;;;;;;;;;;;;;8.69;62.79;97872.00;4191254;28;6370;-72
2022/12/19 09:52:06;;;;;;;;;;;;;;;8.72;62.71;97870.84;4203355;28;5698;-73
2022/12/19 09:54:16;;;;;;;;;;;;;;;8.75;62.62;97874.03;4194852;28;5809;-72
2022/12/19 09:56:22;;;;;;;;;;;;;;;8.75;62.65;97871.38;4201741;28;5809;-72
2022/12/19 09:58:32;;;;;;;;;;;;;;;8.75;62.82;97866.09;4194745;28;5682;-73
2022/12/19 10:00:39;;;;;;;;;;;;;;;8.78;62.52;97869.41;4197836;28;5680;-73
2022/12/19 10:02:47;;;;;;;;;;;;;;;8.81;62.46;97867.28;4202672;28;5703;-72
2022/12/19 10:04:56;;;;;;;;;;;;;;;8.81;62.67;97862.00;4187480;28;6505;-73
2022/12/19 10:07:20;;;;;;;;;;;;;;;8.82;62.80;97870.75;4201616;28;5769;-72
2022/12/19 10:09:43;;;;;;;;;;;;;;;8.81;62.85;97869.91;4197311;28;5781;-72
2022/12/19 10:12:12;;;;;;;;;;;;;;;8.83;62.60;97867.94;4200869;28;5786;-73
2022/12/19 10:14:47;;;;;;;;;;;;;;;8.86;62.65;97853.66;4202251;28;5747;-71
2022/12/19 10:16:59;;;;;;;;;;;;;;;8.85;62.37;97847.56;4194087;28;5798;-71
2022/12/19 10:19:33;;;;;;;;;;;;;;;8.87;62.70;97844.75;4192854;28;5729;-71
2022/12/19 10:21:41;;;;;;;;;;;;;;;8.90;62.47;97841.78;4195857;28;5878;-72
2022/12/19 10:24:19;;;;;;;;;;;;;;;8.89;62.75;97848.06;4200198;28;6282;-72
2022/12/19 10:26:29;;;;;;;;;;;;;;;8.90;62.53;97847.91;4198522;28;5810;-72
2022/12/19 10:28:52;;;;;;;;;;;;;;;8.91;62.55;97836.34;4194055;28;5698;-71
2022/12/19 10:31:08;;;;;;;;;;;;;;;8.90;62.74;97839.97;4192659;28;5745;-72
2022/12/19 10:33:29;;;;;;;;;;;;;;;8.93;62.43;97838.84;4194201;28;5687;-71
2022/12/19 10:35:34;;;;;;;;;;;;;;;8.95;62.48;97836.88;4202530;28;5682;-72
2022/12/19 10:37:43;;;;;;;;;;;;;;;8.96;62.52;97835.91;4198457;28;5712;-72
2022/12/19 10:39:59;;;;;;;;;;;;;;;8.95;62.51;97824.53;4191229;28;5690;-73
2022/12/19 10:42:11;;;;;;;;;;;;;;;8.97;62.53;97834.91;4201829;28;6400;-72
2022/12/19 10:44:15;;;;;;;;;;;;;;;8.97;62.58;97833.09;4192767;28;6400;-73
2022/12/19 10:46:25;;;;;;;;;;;;;;;8.98;62.39;97837.41;4196887;28;5783;-73
2022/12/19 10:48:29;;;;;;;;;;;;;;;8.99;62.57;97832.94;4191714;28;5708;-72
2022/12/19 10:50:33;;;;;;;;;;;;;;;9.00;62.42;97835.41;4194146;28;5778;-74
2022/12/19 10:52:51;;;;;;;;;;;;;;;9.01;62.59;97828.34;4197942;28;5694;-72
2022/12/19 10:54:56;;;;;;;;;;;;;;;9.05;62.64;97829.66;4195380;28;5712;-72
2022/12/19 10:57:18;;;;;;;;;;;;;;;9.04;62.42;97820.09;4192185;28;5707;-72
2022/12/19 10:59:22;;;;;;;;;;;;;;;9.07;62.58;97825.06;4201648;28;5785;-72
2022/12/19 11:01:26;;;;;;;;;;;;;;;9.09;62.26;97820.47;4191755;28;5732;-72
2022/12/19 11:03:30;;;;;;;;;;;;;;;9.10;62.31;97826.56;4185154;28;5810;-72
2022/12/19 11:05:43;;;;;;;;;;;;;;;9.10;62.31;97832.66;4195504;28;5905;-72
2022/12/19 11:08:00;;;;;;;;;;;;;;;9.09;62.60;97831.00;4201553;28;5680;-71
2022/12/19 11:10:34;;;;;;;;;;;;;;;9.10;62.47;97827.38;4185768;28;5704;-72
2022/12/19 11:12:57;;;;;;;;;;;;;;;9.11;62.51;97836.13;4185703;28;5767;-72
2022/12/19 11:15:22;;;;;;;;;;;;;;;9.09;62.45;97828.38;4192323;28;5716;-72
2022/12/19 11:17:46;;;;;;;;;;;;;;;9.09;62.65;97823.09;4197571;28;5744;-72
2022/12/19 11:20:14;;;;;;;;;;;;;;;9.09;62.50;97822.28;4193363;28;5829;-72
2022/12/19 11:22:37;;;;;;;;;;;;;;;9.09;62.27;97807.28;4185475;28;5712;-72
2022/12/19 11:25:00;;;;;;;;;;;;;;;9.11;62.48;97807.94;4199728;28;5778;-73
2022/12/19 11:27:35;;;;;;;;;;;;;;;9.13;62.45;97803.31;4197389;28;5781;-72
2022/12/19 11:30:00;;;;;;;;;;;;;;;9.14;62.43;97793.59;4194769;28;5847;-73
2022/12/19 11:32:31;;;;;;;;;;;;;;;9.15;62.54;97803.97;4192080;28;5804;-73
2022/12/19 11:34:49;;;;;;;;;;;;;;;9.18;62.33;97801.06;4201111;28;6392;-73
2022/12/19 11:37:00;;;;;;;;;;;;;;;9.20;62.54;97793.78;4193817;28;5706;-73
2022/12/19 11:39:04;;;;;;;;;;;;;;;9.23;62.21;97790.00;4189965;28;5076;-73
2022/12/19 11:41:14;;;;;;;;;;;;;;;9.24;62.54;97784.56;4192284;28;5730;-73
2022/12/19 11:43:24;;;;;;;;;;;;;;;9.27;62.54;97793.97;4193792;28;5942;-72
2022/12/19 11:45:51;;;;;;;;;;;;;;;9.30;62.47;97789.22;4185857;28;5763;-73
2022/12/19 11:48:00;;;;;;;;;;;;;;;9.31;62.46;97782.13;4198962;28;5762;-73
2022/12/19 11:50:14;;;;;;;;;;;;;;;9.34;62.19;97789.72;4201420;28;5705;-72
2022/12/19 11:52:32;;;;;;;;;;;;;;;9.35;62.65;97780.81;4194174;28;5697;-71
2022/12/19 11:55:00;;;;;;;;;;;;;;;9.38;62.49;97782.28;4192860;28;5708;-73
2022/12/19 11:57:03;;;;;;;;;;;;;;;9.40;62.21;97783.81;4192649;28;5717;-72
2022/12/19 11:59:13;;;;;;;;;;;;;;;9.40;62.39;97783.81;4186281;28;5866;-72
2022/12/19 12:01:30;;;;;;;;;;;;;;;9.42;62.34;97788.91;4198583;28;5790;-72
2022/12/19 12:04:00;;;;;;;;;;;;;;;9.44;62.31;97785.13;4194822;28;5735;-72
2022/12/19 12:06:11;;;;;;;;;;;;;;;9.44;62.43;97786.94;4192971;28;5691;-72
2022/12/19 12:08:41;;;;;;;;;;;;;;;9.41;62.54;97792.53;4197939;28;5703;-72
2022/12/19 12:11:13;;;;;;;;;;;;;;;9.40;62.60;97783.81;4193267;28;5806;-73
2022/12/19 12:13:44;;;;;;;;;;;;;;;9.41;62.61;97785.44;4183906;28;5846;-72
2022/12/19 12:16:11;;;;;;;;;;;;;;;9.42;62.76;97775.72;4198769;28;5691;-71
2022/12/19 12:18:49;;;;;;;;;;;;;;;9.43;62.78;97780.00;4194321;28;5703;-72
2022/12/19 12:21:22;;;;;;;;;;;;;;;9.43;62.56;97782.63;4194799;28;5702;-72
2022/12/19 12:23:56;;;;;;;;;;;;;;;9.41;62.61;97768.78;4184291;28;5716;-73
2022/12/19 12:26:26;;;;;;;;;;;;;;;9.38;62.51;97774.38;4186820;28;5862;-72
2022/12/19 12:28:57;;;;;;;;;;;;;;;9.38;62.88;97779.66;4189353;28;5720;-73
2022/12/19 12:31:35;;;;;;;;;;;;;;;9.39;62.43;97787.41;4198755;28;5687;-72
2022/12/19 12:34:09;;;;;;;;;;;;;;;9.39;62.81;97770.75;4185945;28;5815;-72
2022/12/19 12:36:43;;;;;;;;;;;;;;;9.38;62.74;97769.91;4186384;28;6387;-72
2022/12/19 12:39:12;;;;;;;;;;;;;;;9.39;62.65;97771.56;4189595;28;5801;-73
2022/12/19 12:44:08;;;;;;;;;;;;;;;9.43;62.74;97769.44;4193078;28;6544;-72
2022/12/19 12:46:15;;;;;;;;;;;;;;;9.43;62.99;97756.25;4184167;28;6386;-72
2022/12/19 12:48:25;;;;;;;;;;;;;;;9.40;62.67;97751.28;4192153;28;5857;-72
2022/12/19 12:50:30;;;;;;;;;;;;;;;9.42;62.76;97754.59;4192201;28;5750;-73
2022/12/19 12:52:38;;;;;;;;;;;;;;;9.43;62.69;97761.53;4192202;28;5728;-72
2022/12/19 12:54:46;;;;;;;;;;;;;;;9.44;62.99;97757.91;4193001;28;5707;-72
2022/12/19 12:56:49;;;;;;;;;;;;;;;9.46;62.81;97755.91;4200546;28;5714;-71
2022/12/19 12:59:21;;;;;;;;;;;;;;;9.48;62.89;97749.47;4199521;28;5778;-72
2022/12/19 13:01:33;;;;;;;;;;;;;;;9.48;62.85;97743.38;4194615;28;5881;-72
2022/12/19 13:03:36;;;;;;;;;;;;;;;9.48;62.80;97744.19;4192285;28;6786;-72
2022/12/19 13:05:52;;;;;;;;;;;;;;;9.50;62.95;97746.69;4192653;28;5698;-71
2022/12/19 13:07:56;;;;;;;;;;;;;;;9.49;62.76;97737.94;4187118;28;5757;-73
2022/12/19 13:10:16;;;;;;;;;;;;;;;9.49;62.79;97737.94;4187357;28;5828;-72
2022/12/19 13:14:48;;;;;;;;;;;;;;;9.53;62.70;97730.53;4187424;28;5790;-72
2022/12/19 13:16:53;;;;;;;;;;;;;;;9.55;62.99;97720.63;4193314;28;5721;-73
2022/12/19 13:19:04;;;;;;;;;;;;;;;9.55;63.05;97724.09;4191008;28;5747;-71
2022/12/19 13:21:09;;;;;;;;;;;;;;;9.56;63.06;97733.66;4188471;28;5779;-72
2022/12/19 13:23:33;;;;;;;;;;;;;;;9.58;63.15;97738.78;4189286;28;5802;-72
2022/12/19 13:25:51;;;;;;;;;;;;;;;9.59;62.70;97735.13;4191395;28;5731;-72
2022/12/19 13:27:57;;;;;;;;;;;;;;;9.60;62.83;97740.25;4198253;28;5828;-72
2022/12/19 13:30:19;;;;;;;;;;;;;;;9.63;63.09;97733.84;4190708;28;6128;-72
2022/12/19 13:32:23;;;;;;;;;;;;;;;9.63;62.75;97734.66;4192014;28;6267;-72
2022/12/19 13:34:35;;;;;;;;;;;;;;;9.66;63.15;97735.31;4191013;28;5694;-72
2022/12/19 13:36:49;;;;;;;;;;;;;;;9.66;63.02;97727.41;4195493;28;5789;-72
2022/12/19 13:39:27;;;;;;;;;;;;;;;9.69;63.33;97733.16;4186965;28;5702;-72
2022/12/19 13:44:11;;;;;;;;;;;;;;;9.71;63.28;97728.53;4196290;28;6372;-72
2022/12/19 13:46:40;;;;;;;;;;;;;;;9.73;63.18;97725.72;4193982;28;5787;-73
2022/12/19 13:48:46;;;;;;;;;;;;;;;9.76;63.18;97725.44;4174436;28;5895;-73
2022/12/19 13:50:49;;;;;;;;;;;;;;;9.78;63.41;97724.28;4191373;28;5858;-72
2022/12/19 13:52:52;;;;;;;;;;;;;;;9.77;63.22;97725.25;4195689;28;5690;-72
2022/12/19 13:54:59;;;;;;;;;;;;;;;9.79;63.25;97725.91;4201752;28;5707;-72
2022/12/19 13:57:02;;;;;;;;;;;;;;;9.80;63.48;97730.19;4192947;28;5850;-72
2022/12/19 13:59:11;;;;;;;;;;;;;;;9.82;63.45;97736.13;4193497;28;5697;-72
2022/12/19 14:01:18;;;;;;;;;;;;;;;9.84;63.20;97730.69;4191851;28;5813;-72
2022/12/19 14:03:34;;;;;;;;;;;;;;;9.85;63.13;97729.69;4197093;28;5752;-73
2022/12/19 14:05:39;;;;;;;;;;;;;;;9.84;63.34;97746.53;4191439;28;5675;-73
2022/12/19 14:08:05;;;;;;;;;;;;;;;9.85;63.51;97741.13;4195075;28;5720;-72
2022/12/19 14:10:18;;;;;;;;;;;;;;;9.87;63.35;97744.41;4187988;28;5108;-73
2022/12/19 14:15:28;;;;;;;;;;;;;;;9.89;63.55;97763.56;4190311;28;5909;-72
2022/12/19 14:17:32;;;;;;;;;;;;;;;9.90;63.34;97753.81;4194481;28;5799;-73
2022/12/19 14:19:40;;;;;;;;;;;;;;;9.92;63.22;97754.47;4194942;28;5782;-73
2022/12/19 14:21:43;;;;;;;;;;;;;;;9.93;63.30;97743.72;4191615;28;5813;-71
2022/12/19 14:24:11;;;;;;;;;;;;;;;9.96;63.37;97725.91;4187415;28;5080;-71
2022/12/19 14:26:24;;;;;;;;;;;;;;;9.96;63.24;97734.63;4189016;28;5813;-71
2022/12/19 14:28:52;;;;;;;;;;;;;;;9.96;63.58;97733.81;4191753;28;5683;-72
2022/12/19 14:30:59;;;;;;;;;;;;;;;9.96;63.47;97724.06;4192154;28;5855;-72
2022/12/19 14:33:08;;;;;;;;;;;;;;;9.98;63.27;97734.50;4195805;28;6359;-72
2022/12/19 14:35:34;;;;;;;;;;;;;;;9.98;63.39;97735.31;4190663;28;5837;-71
2022/12/19 14:38:01;;;;;;;;;;;;;;;10.01;63.33;97731.53;4190954;28;5783;-71
2022/12/19 14:40:26;;;;;;;;;;;;;;;10.04;63.25;97741.75;4192299;28;5827;-72
2022/12/19 14:45:32;;;;;;;;;;;;;;;10.06;63.22;97737.94;4195311;28;5781;-72
2022/12/19 14:47:54;;;;;;;;;;;;;;;10.07;63.30;97736.94;4191887;28;5830;-72
2022/12/19 14:50:28;;;;;;;;;;;;;;;10.06;63.11;97742.41;4195754;28;5671;-72
2022/12/19 14:53:06;;;;;;;;;;;;;;;10.04;63.44;97749.66;4189254;28;5714;-72
2022/12/19 14:55:32;;;;;;;;;;;;;;;10.02;63.64;97728.72;4195429;28;5742;-72
2022/12/19 14:57:58;;;;;;;;;;;;;;;10.00;63.69;97728.06;4194992;28;5794;-73
2022/12/19 15:00:41;;;;;;;;;;;;;;;10.00;63.70;97737.78;4192569;28;5849;-73
2022/12/19 15:03:07;;;;;;;;;;;;;;;10.01;63.36;97734.16;4190167;28;5732;-73
2022/12/19 15:05:19;;;;;;;;;;;;;;;9.99;63.69;97736.16;4188430;28;5709;-72
2022/12/19 15:07:26;;;;;;;;;;;;;;;10.01;63.61;97737.63;4197956;28;5841;-72
2022/12/19 15:09:29;;;;;;;;;;;;;;;10.00;63.31;97728.06;4190466;28;5858;-73
2022/12/19 15:14:43;;;;;;;;;;;;;;;9.99;63.24;97725.59;4190850;28;5874;-72
2022/12/19 15:17:02;;;;;;;;;;;;;;;9.99;63.56;97736.97;4194446;28;5989;-73
2022/12/19 15:19:11;;;;;;;;;;;;;;;9.99;63.26;97741.44;4192344;28;5796;-72
2022/12/19 15:21:14;;;;;;;;;;;;;;;9.99;63.51;97742.25;4191724;28;5114;-72
2022/12/19 15:23:17;;;;;;;;;;;;;;;9.98;63.43;97731.84;4186279;28;5731;-72
2022/12/19 15:25:24;;;;;;;;;;;;;;;9.98;63.26;97740.59;4189269;28;5792;-72
2022/12/19 15:27:47;;;;;;;;;;;;;;;9.99;63.37;97730.88;4189624;28;5728;-72
2022/12/19 15:29:52;;;;;;;;;;;;;;;9.98;63.31;97734.50;4186758;28;5720;-72
2022/12/19 15:31:54;;;;;;;;;;;;;;;9.97;63.60;97732.84;4185590;28;5732;-72
2022/12/19 15:33:58;;;;;;;;;;;;;;;9.96;63.32;97734.63;4191642;28;5897;-72
2022/12/19 15:36:21;;;;;;;;;;;;;;;9.95;63.58;97726.88;4192406;28;5774;-72
2022/12/19 15:38:23;;;;;;;;;;;;;;;9.95;63.55;97724.25;4186538;28;5835;-72
2022/12/19 15:40:26;;;;;;;;;;;;;;;9.95;63.15;97725.06;4186551;28;5708;-72
2022/12/19 15:42:31;;;;;;;;;;;;;;;9.95;63.42;97724.25;4194503;28;5699;-73
2022/12/19 15:44:36;;;;;;;;;;;;;;;9.93;63.38;97725.25;4191963;28;5789;-73
2022/12/19 15:46:40;;;;;;;;;;;;;;;9.92;63.53;97726.22;4182931;28;5822;-73
2022/12/19 15:48:51;;;;;;;;;;;;;;;9.90;63.34;97725.59;4189179;28;5751;-73
2022/12/19 15:50:53;;;;;;;;;;;;;;;9.90;63.56;97740.59;4197389;28;5834;-73
2022/12/19 15:52:58;;;;;;;;;;;;;;;9.89;63.62;97747.69;4195916;28;5720;-73
2022/12/19 15:55:01;;;;;;;;;;;;;;;9.90;63.43;97754.63;4197604;28;5695;-73
2022/12/19 15:57:05;;;;;;;;;;;;;;;9.89;63.50;97754.81;4193329;28;5821;-73
2022/12/19 15:59:20;;;;;;;;;;;;;;;9.89;63.36;97747.69;4195124;28;5885;-72
2022/12/19 16:01:41;;;;;;;;;;;;;;;9.88;63.35;97740.78;4198201;28;5806;-73
2022/12/19 16:03:46;;;;;;;;;;;;;;;9.87;63.08;97739.13;4190830;28;5784;-73
2022/12/19 16:05:49;;;;;;;;;;;;;;;9.88;63.34;97740.78;4197160;28;5802;-73
2022/12/19 16:07:52;;;;;;;;;;;;;;;9.88;63.42;97745.22;4194783;28;5695;-73
2022/12/19 16:09:55;;;;;;;;;;;;;;;9.88;63.47;97738.13;4185156;28;5795;-73
2022/12/19 16:11:58;;;;;;;;;;;;;;;9.86;63.35;97734.84;4184748;28;5708;-73
2022/12/19 16:14:01;;;;;;;;;;;;;;;9.85;63.22;97729.69;4192624;28;5793;-74
2022/12/19 16:16:04;;;;;;;;;;;;;;;9.86;63.58;97726.09;4193250;28;5728;-73
2022/12/19 16:18:17;;;;;;;;;;;;;;;9.87;63.33;97727.75;4193176;28;5731;-72
2022/12/19 16:20:24;;;;;;;;;;;;;;;9.87;63.29;97723.28;4192787;28;5782;-72
2022/12/19 16:22:29;;;;;;;;;;;;;;;9.88;63.46;97724.94;4184993;28;5712;-73
2022/12/19 16:24:31;;;;;;;;;;;;;;;9.88;63.36;97721.47;4195941;28;5991;-72
2022/12/19 16:26:37;;;;;;;;;;;;;;;9.88;63.18;97724.94;4198320;28;5720;-73
2022/12/19 16:28:40;;;;;;;;;;;;;;;9.88;63.29;97714.38;4194695;28;5708;-72
2022/12/19 16:30:43;;;;;;;;;;;;;;;9.86;63.30;97700.50;4194995;28;5704;-72
2022/12/19 16:32:46;;;;;;;;;;;;;;;9.87;63.06;97702.16;4184925;28;6528;-73
2022/12/19 16:34:49;;;;;;;;;;;;;;;9.88;63.26;97702.97;4192548;28;5716;-73
2022/12/19 16:36:53;;;;;;;;;;;;;;;9.87;62.85;97704.78;4190140;28;6013;-73
2022/12/19 16:38:56;;;;;;;;;;;;;;;9.88;62.85;97702.97;4193003;28;5703;-73
2022/12/19 16:41:00;;;;;;;;;;;;;;;9.89;62.75;97699.34;4194160;28;6400;-73
2022/12/19 16:43:05;;;;;;;;;;;;;;;9.88;63.02;97698.50;4190919;28;5707;-73
2022/12/19 16:45:16;;;;;;;;;;;;;;;9.88;62.87;97693.22;4191801;28;5717;-73
2022/12/19 16:47:19;;;;;;;;;;;;;;;9.88;62.58;97693.22;4193139;28;5717;-73
2022/12/19 16:49:22;;;;;;;;;;;;;;;9.90;62.52;97700.97;4191769;28;5733;-73
2022/12/19 16:51:27;;;;;;;;;;;;;;;9.90;62.51;97698.34;4190272;28;5762;-73
2022/12/19 16:53:31;;;;;;;;;;;;;;;9.89;62.31;97702.81;4187494;28;5925;-73
2022/12/19 16:55:34;;;;;;;;;;;;;;;9.90;62.32;97693.88;4193866;28;5871;-73
2022/12/19 16:57:37;;;;;;;;;;;;;;;9.90;62.28;97685.97;4193331;28;5699;-73
2022/12/19 16:59:39;;;;;;;;;;;;;;;9.91;61.94;97682.31;4190331;28;5702;-73
2022/12/19 17:01:43;;;;;;;;;;;;;;;9.91;61.62;97679.69;4184593;28;5791;-75
2022/12/19 17:03:47;;;;;;;;;;;;;;;9.89;61.88;97692.25;4187555;28;5990;-72
2022/12/19 17:05:49;;;;;;;;;;;;;;;9.90;61.77;97696.53;4190907;28;5807;-73
2022/12/19 17:07:53;;;;;;;;;;;;;;;9.90;61.36;97699.16;4192783;28;5747;-73